Time;durP1;ratioP1;P1;durP2;ratioP2;P2;SDS_P1;SDS_P2;PMS_P1;PMS_P2;Temp;Humidity;BMP_temperature;BMP_pressure;BME280_temperature;BME280_humidity;BME280_pressure;Samples;Min_cycle;Max_cycle;Signal;HPM_P1;HPM_P2
2022/10/19 00:00:47;;;;;;;12.55;6.78;;;10.50;99.90;;;;;;4964518;28;20030;-93
2022/10/19 00:03:12;;;;;;;15.20;7.03;;;10.50;99.90;;;;;;4963865;28;20045;-93
2022/10/19 00:05:38;;;;;;;10.80;6.80;;;10.50;99.90;;;;;;4966944;28;20094;-93
2022/10/19 00:08:04;;;;;;;10.13;6.45;;;10.60;99.90;;;;;;4977711;28;20476;-95
2022/10/19 00:10:31;;;;;;;13.85;7.97;;;10.70;99.90;;;;;;4959279;28;20113;-92
2022/10/19 00:12:56;;;;;;;12.15;6.68;;;10.70;99.90;;;;;;4969442;28;20030;-94
2022/10/19 00:15:22;;;;;;;15.43;6.85;;;10.70;99.90;;;;;;4975944;28;20023;-90
2022/10/19 00:17:48;;;;;;;13.82;6.07;;;10.70;99.90;;;;;;5000569;28;20049;-89
2022/10/19 00:20:13;;;;;;;20.17;7.22;;;10.70;99.90;;;;;;4986995;28;20053;-88
2022/10/19 00:22:39;;;;;;;12.73;6.72;;;10.60;99.90;;;;;;4986527;28;20029;-87
2022/10/19 00:25:05;;;;;;;11.20;6.18;;;10.60;99.90;;;;;;4985192;28;20039;-91
2022/10/19 00:27:31;;;;;;;12.50;6.25;;;10.60;99.90;;;;;;5001449;28;20179;-92
2022/10/19 00:30:00;;;;;;;8.85;4.95;;;10.60;99.90;;;;;;4971339;28;20507;-92
2022/10/19 00:32:25;;;;;;;11.52;5.65;;;10.50;99.90;;;;;;4980910;28;20045;-94
2022/10/19 00:34:52;;;;;;;17.65;6.10;;;10.50;99.90;;;;;;4986468;28;20053;-92
2022/10/19 00:37:17;;;;;;;10.15;5.80;;;10.50;99.90;;;;;;4980840;28;20010;-92
2022/10/19 00:39:43;;;;;;;16.17;5.65;;;10.40;99.90;;;;;;4975182;28;20069;-91
2022/10/19 00:42:12;;;;;;;14.10;5.53;;;10.40;99.90;;;;;;4965611;28;20062;-92
2022/10/19 00:44:37;;;;;;;13.98;5.78;;;10.40;99.90;;;;;;4963736;28;20019;-90
2022/10/19 00:47:06;;;;;;;9.57;5.40;;;10.40;99.90;;;;;;4962022;28;20046;-93
2022/10/19 00:49:36;;;;;;;11.20;5.68;;;10.40;99.90;;;;;;4961558;28;20027;-93
2022/10/19 00:52:06;;;;;;;9.45;5.35;;;10.30;99.90;;;;;;4962668;28;20027;-92
2022/10/19 00:54:35;;;;;;;11.77;5.03;;;10.30;99.90;;;;;;4964845;28;20031;-94
2022/10/19 00:57:03;;;;;;;5.93;4.10;;;10.20;99.90;;;;;;4964576;28;20807;-92
2022/10/19 00:59:31;;;;;;;12.63;5.07;;;10.20;99.90;;;;;;4973087;28;20019;-93
2022/10/19 01:01:58;;;;;;;9.32;4.70;;;10.20;99.90;;;;;;4964654;28;20122;-93
2022/10/19 01:04:25;;;;;;;11.75;5.10;;;10.20;99.90;;;;;;4964578;28;20605;-92
2022/10/19 01:06:53;;;;;;;13.48;4.90;;;10.20;99.90;;;;;;4961919;28;20477;-90
2022/10/19 01:09:19;;;;;;;11.38;4.53;;;10.10;99.90;;;;;;4974459;28;20050;-94
2022/10/19 01:12:02;;;;;;;11.30;4.28;;;10.10;99.90;;;;;;4958638;28;20050;-91
2022/10/19 01:14:58;;;;;;;8.05;4.10;;;10.10;99.90;;;;;;4945381;28;20027;-93
2022/10/19 01:17:29;;;;;;;7.85;3.08;;;10.10;99.90;;;;;;4960483;28;20027;-92
2022/10/19 01:20:17;;;;;;;15.05;4.35;;;10.20;99.90;;;;;;4964257;28;20497;-93
2022/10/19 01:23:05;;;;;;;11.57;3.42;;;10.10;99.90;;;;;;4968544;28;20081;-93
2022/10/19 01:25:45;;;;;;;9.52;3.15;;;10.20;99.90;;;;;;4962293;28;20034;-92
2022/10/19 01:28:29;;;;;;;9.68;3.90;;;10.10;99.90;;;;;;4961923;28;20377;-92
2022/10/19 01:31:24;;;;;;;7.38;3.50;;;10.10;99.90;;;;;;4960157;28;20023;-91
2022/10/19 01:33:55;;;;;;;6.20;3.03;;;10.10;99.90;;;;;;4965225;28;20023;-92
2022/10/19 01:36:55;;;;;;;8.52;3.10;;;10.10;99.90;;;;;;4969791;28;20027;-91
2022/10/19 01:39:34;;;;;;;9.15;3.55;;;10.10;99.90;;;;;;4982205;28;20086;-87
2022/10/19 01:42:03;;;;;;;9.15;3.05;;;10.10;99.90;;;;;;4981739;28;20018;-89
2022/10/19 01:44:48;;;;;;;8.48;2.90;;;10.10;99.90;;;;;;4978362;28;20456;-92
2022/10/19 01:47:19;;;;;;;8.82;3.22;;;10.10;99.90;;;;;;4959501;28;20093;-90
2022/10/19 01:49:59;;;;;;;7.15;3.17;;;10.10;99.90;;;;;;4959198;28;20042;-93
2022/10/19 01:52:26;;;;;;;5.60;2.87;;;10.10;99.90;;;;;;4960208;28;20046;-94
2022/10/19 01:54:57;;;;;;;5.47;2.63;;;10.10;99.90;;;;;;4959284;28;20340;-94
2022/10/19 01:57:31;;;;;;;5.32;2.83;;;10.10;99.90;;;;;;4960938;28;20030;-91
2022/10/19 01:59:57;;;;;;;7.78;2.95;;;10.10;99.90;;;;;;4960563;28;20041;-91
2022/10/19 02:02:25;;;;;;;7.15;2.55;;;10.10;99.90;;;;;;4959133;28;20026;-92
2022/10/19 02:04:54;;;;;;;5.95;2.85;;;10.10;99.90;;;;;;4963881;28;20378;-93
2022/10/19 02:07:21;;;;;;;6.72;2.67;;;10.10;99.90;;;;;;4960786;28;20030;-93
2022/10/19 02:09:47;;;;;;;8.25;2.90;;;10.00;99.90;;;;;;4961856;28;20034;-90
2022/10/19 02:12:14;;;;;;;8.63;3.25;;;10.00;99.90;;;;;;4975079;28;20034;-89
2022/10/19 02:14:45;;;;;;;8.95;3.42;;;10.00;99.90;;;;;;4973055;28;20094;-92
2022/10/19 02:17:22;;;;;;;13.20;3.28;;;10.00;99.90;;;;;;4964517;28;20035;-92
2022/10/19 02:19:48;;;;;;;11.52;3.47;;;10.00;99.90;;;;;;4960563;28;20035;-92
2022/10/19 02:22:14;;;;;;;14.35;3.47;;;10.10;99.90;;;;;;4959745;28;20037;-93
2022/10/19 02:24:39;;;;;;;8.88;3.17;;;10.00;99.90;;;;;;4975421;28;20471;-93
2022/10/19 02:27:06;;;;;;;8.55;3.00;;;10.00;99.90;;;;;;4958412;28;20200;-93
2022/10/19 02:29:34;;;;;;;9.80;2.80;;;10.00;99.90;;;;;;4956925;28;20026;-91
2022/10/19 02:32:01;;;;;;;8.90;2.45;;;10.00;99.90;;;;;;4956534;28;20039;-91
2022/10/19 02:34:27;;;;;;;9.32;2.65;;;10.10;99.90;;;;;;4963502;28;20033;-90
2022/10/19 02:36:53;;;;;;;5.55;2.30;;;10.10;99.90;;;;;;4973081;28;20556;-93
2022/10/19 02:39:20;;;;;;;8.27;3.78;;;10.10;99.90;;;;;;4956483;28;20065;-94
2022/10/19 02:41:51;;;;;;;4.22;2.20;;;10.10;99.90;;;;;;4936920;29;20038;-92
2022/10/19 02:44:56;;;;;;;5.93;2.20;;;10.10;99.90;;;;;;4937049;29;20027;-92
2022/10/19 02:47:36;;;;;;;9.35;2.30;;;10.10;99.90;;;;;;4899290;29;20047;-92
2022/10/19 02:50:08;;;;;;;9.20;2.10;;;10.10;99.90;;;;;;4937444;29;20224;-94
2022/10/19 02:52:41;;;;;;;5.75;1.80;;;10.10;99.90;;;;;;4937387;29;20035;-92
2022/10/19 02:55:07;;;;;;;6.90;1.80;;;10.10;99.90;;;;;;4936434;29;20112;-92
2022/10/19 02:57:33;;;;;;;7.40;2.20;;;10.10;99.90;;;;;;4949475;28;20019;-91
2022/10/19 02:59:59;;;;;;;7.40;1.40;;;10.10;99.90;;;;;;4956054;28;20027;-93
2022/10/19 03:02:24;;;;;;;4.30;1.40;;;10.10;99.90;;;;;;4956266;28;20485;-90
2022/10/19 03:04:50;;;;;;;5.38;1.70;;;10.10;99.90;;;;;;4973637;28;20098;-91
2022/10/19 03:07:18;;;;;;;9.43;1.52;;;10.10;99.90;;;;;;4955575;28;20497;-92
2022/10/19 03:09:44;;;;;;;5.88;1.30;;;10.10;99.90;;;;;;4951749;28;20027;-91
2022/10/19 03:12:11;;;;;;;4.18;1.20;;;10.10;99.90;;;;;;4955632;28;20050;-92
2022/10/19 03:14:37;;;;;;;3.70;1.63;;;10.10;99.90;;;;;;4946509;28;20118;-93
2022/10/19 03:17:03;;;;;;;4.70;1.20;;;10.20;99.90;;;;;;4971475;28;20122;-91
2022/10/19 03:19:29;;;;;;;5.20;1.27;;;10.10;99.90;;;;;;4956961;28;20065;-93
2022/10/19 03:21:55;;;;;;;7.13;1.73;;;10.10;99.90;;;;;;4957417;28;20101;-92
2022/10/19 03:24:21;;;;;;;7.75;1.17;;;10.10;99.90;;;;;;4974193;28;20050;-94
2022/10/19 03:26:47;;;;;;;4.53;1.20;;;10.10;99.90;;;;;;4974063;28;20035;-92
2022/10/19 03:29:12;;;;;;;9.27;1.40;;;10.10;99.90;;;;;;4956762;28;20031;-91
2022/10/19 03:31:38;;;;;;;6.10;1.30;;;10.10;99.90;;;;;;4977230;28;20046;-90
2022/10/19 03:34:04;;;;;;;4.20;1.20;;;10.10;99.90;;;;;;4978484;28;20026;-93
2022/10/19 03:36:32;;;;;;;3.53;1.15;;;10.00;99.90;;;;;;4957734;28;20061;-94
2022/10/19 03:39:00;;;;;;;7.05;1.30;;;10.00;99.90;;;;;;4958819;28;20027;-94
2022/10/19 03:41:28;;;;;;;8.07;1.65;;;10.10;99.90;;;;;;4957472;28;20062;-93
2022/10/19 03:43:54;;;;;;;3.20;1.98;;;10.00;99.90;;;;;;4959263;28;20469;-91
2022/10/19 03:46:21;;;;;;;3.60;1.38;;;10.00;99.90;;;;;;4957740;28;20073;-93
2022/10/19 03:48:46;;;;;;;7.40;1.20;;;10.00;99.90;;;;;;4957944;28;20246;-92
2022/10/19 03:51:14;;;;;;;10.38;1.75;;;10.00;99.90;;;;;;4957722;28;20039;-94
2022/10/19 03:53:41;;;;;;;4.00;1.15;;;10.00;99.90;;;;;;4958858;28;20029;-92
2022/10/19 03:56:11;;;;;;;7.10;2.08;;;9.90;99.90;;;;;;4978028;28;20027;-92
2022/10/19 03:58:38;;;;;;;5.43;1.42;;;9.90;99.90;;;;;;4965502;28;20035;-93
2022/10/19 04:01:10;;;;;;;8.73;1.00;;;9.90;99.90;;;;;;4961843;28;20122;-93
2022/10/19 04:03:35;;;;;;;8.68;1.15;;;9.90;99.90;;;;;;4959580;28;20091;-93
2022/10/19 04:06:07;;;;;;;3.63;1.05;;;9.90;99.90;;;;;;4958425;28;20081;-92
2022/10/19 04:08:33;;;;;;;2.88;1.45;;;9.90;99.90;;;;;;4965402;28;20019;-92
2022/10/19 04:11:02;;;;;;;7.68;1.30;;;9.90;99.90;;;;;;4966911;28;20129;-93
2022/10/19 04:13:29;;;;;;;3.92;1.58;;;9.90;99.90;;;;;;4964709;28;20034;-92
2022/10/19 04:15:55;;;;;;;8.45;1.65;;;9.90;99.90;;;;;;4978009;28;20038;-94
2022/10/19 04:18:20;;;;;;;8.73;1.83;;;9.90;99.90;;;;;;4952072;29;20484;-94
2022/10/19 04:20:46;;;;;;;3.22;1.20;;;9.80;99.90;;;;;;4941640;29;20027;-92
2022/10/19 04:23:12;;;;;;;7.40;1.83;;;9.90;99.90;;;;;;4941025;29;20031;-94
2022/10/19 04:25:38;;;;;;;8.07;1.40;;;9.90;99.90;;;;;;4941107;29;20058;-92
2022/10/19 04:28:03;;;;;;;3.83;1.35;;;9.90;99.90;;;;;;4940847;29;20035;-93
2022/10/19 04:30:29;;;;;;;6.90;1.50;;;9.80;99.90;;;;;;4941572;29;20481;-92
2022/10/19 04:32:54;;;;;;;6.70;1.30;;;9.80;99.90;;;;;;4941465;29;20462;-92
2022/10/19 04:35:20;;;;;;;11.45;2.13;;;9.80;99.90;;;;;;4950414;29;20019;-90
2022/10/19 04:37:46;;;;;;;6.90;1.48;;;9.80;99.90;;;;;;4941268;29;20096;-90
2022/10/19 04:40:11;;;;;;;6.47;1.83;;;9.80;99.90;;;;;;4941139;29;20634;-94
2022/10/19 04:42:37;;;;;;;5.68;1.35;;;9.80;99.90;;;;;;4943470;29;20031;-93
2022/10/19 04:45:03;;;;;;;6.22;1.27;;;9.80;99.90;;;;;;4948034;29;20038;-92
2022/10/19 04:47:29;;;;;;;2.53;1.02;;;9.80;99.90;;;;;;4951064;29;20019;-94
2022/10/19 04:49:55;;;;;;;5.10;0.95;;;9.80;99.90;;;;;;4942667;29;20035;-94
2022/10/19 04:52:20;;;;;;;7.57;1.20;;;9.80;99.90;;;;;;4941211;29;20039;-93
2022/10/19 04:54:46;;;;;;;5.80;1.40;;;9.80;99.90;;;;;;4942493;29;20027;-93
2022/10/19 04:57:12;;;;;;;6.93;1.60;;;9.90;99.90;;;;;;4943801;29;20028;-94
2022/10/19 04:59:37;;;;;;;5.18;1.85;;;9.80;99.90;;;;;;4941000;29;20405;-94
2022/10/19 05:02:03;;;;;;;7.82;1.63;;;9.80;99.90;;;;;;4940144;29;20031;-93
2022/10/19 05:04:28;;;;;;;4.47;1.60;;;9.80;99.90;;;;;;4940778;29;20023;-94
2022/10/19 05:06:54;;;;;;;6.05;1.67;;;9.80;99.90;;;;;;4941424;29;20476;-94
2022/10/19 05:09:20;;;;;;;11.07;1.60;;;9.80;99.90;;;;;;4938826;29;20444;-93
2022/10/19 05:11:48;;;;;;;4.32;2.13;;;9.80;99.90;;;;;;4941065;29;20075;-93
2022/10/19 05:14:14;;;;;;;11.77;2.17;;;9.80;99.90;;;;;;4940569;29;20054;-94
2022/10/19 05:16:39;;;;;;;6.07;2.50;;;9.80;99.90;;;;;;4937663;29;20086;-94
2022/10/19 05:19:05;;;;;;;8.45;2.80;;;9.80;99.90;;;;;;4938181;29;20043;-94
2022/10/19 05:21:31;;;;;;;10.65;2.33;;;9.80;99.90;;;;;;4940252;29;20074;-93
2022/10/19 05:23:57;;;;;;;10.50;2.75;;;9.80;99.90;;;;;;4940198;29;20030;-90
2022/10/19 05:26:25;;;;;;;10.10;2.72;;;9.80;99.90;;;;;;4940786;29;20031;-92
2022/10/19 05:28:55;;;;;;;5.32;2.50;;;9.80;99.90;;;;;;4941858;29;20019;-92
2022/10/19 05:31:22;;;;;;;6.95;1.98;;;9.80;99.90;;;;;;4940551;29;20039;-94
2022/10/19 05:33:47;;;;;;;8.23;2.72;;;9.80;99.90;;;;;;4941185;29;20027;-91
2022/10/19 05:36:13;;;;;;;7.72;1.80;;;9.70;99.90;;;;;;4942979;29;20489;-93
2022/10/19 05:38:39;;;;;;;9.27;2.05;;;9.70;99.90;;;;;;4942961;29;20027;-93
2022/10/19 05:41:05;;;;;;;4.13;1.50;;;9.70;99.90;;;;;;4944755;29;20047;-90
2022/10/19 05:43:31;;;;;;;3.95;1.70;;;9.70;99.90;;;;;;4954905;28;20042;-89
2022/10/19 05:45:56;;;;;;;5.65;1.60;;;9.70;99.90;;;;;;4963347;28;20038;-91
2022/10/19 05:48:22;;;;;;;8.38;1.48;;;9.70;99.90;;;;;;4962461;28;20094;-91
2022/10/19 05:50:53;;;;;;;8.48;1.45;;;9.70;99.90;;;;;;4963602;28;20015;-92
2022/10/19 05:53:19;;;;;;;14.07;1.67;;;9.70;99.90;;;;;;4974529;28;20042;-93
2022/10/19 05:55:44;;;;;;;6.45;1.42;;;9.70;99.90;;;;;;4977121;28;20058;-92
2022/10/19 05:58:10;;;;;;;6.97;1.20;;;9.70;99.90;;;;;;4968386;28;20455;-93
2022/10/19 06:00:35;;;;;;;5.53;2.00;;;9.70;99.90;;;;;;4970336;28;20029;-91
2022/10/19 06:03:01;;;;;;;9.25;1.98;;;9.70;99.90;;;;;;4972064;28;20031;-92
2022/10/19 06:05:27;;;;;;;5.03;1.48;;;9.70;99.90;;;;;;4972344;28;20045;-92
2022/10/19 06:07:52;;;;;;;10.88;1.60;;;9.80;99.90;;;;;;4972717;28;20031;-92
2022/10/19 06:10:20;;;;;;;4.90;1.45;;;9.70;99.90;;;;;;4972474;28;20020;-92
2022/10/19 06:12:49;;;;;;;10.80;2.25;;;9.70;99.90;;;;;;4951280;29;20047;-92
2022/10/19 06:15:15;;;;;;;4.80;1.85;;;9.70;99.90;;;;;;4969659;28;20023;-93
2022/10/19 06:17:40;;;;;;;9.60;1.38;;;9.70;99.90;;;;;;4968006;28;20039;-94
2022/10/19 06:20:06;;;;;;;7.97;1.20;;;9.80;99.90;;;;;;4966463;28;20035;-92
2022/10/19 06:22:34;;;;;;;16.67;2.58;;;9.80;99.90;;;;;;4985969;28;20023;-92
2022/10/19 06:25:00;;;;;;;7.13;1.02;;;9.80;99.90;;;;;;4973482;28;20053;-91
2022/10/19 06:27:26;;;;;;;7.40;1.10;;;9.80;99.90;;;;;;4977974;28;20323;-91
2022/10/19 06:29:52;;;;;;;6.00;1.30;;;9.80;99.90;;;;;;4977473;28;20042;-92
2022/10/19 06:32:17;;;;;;;5.95;1.30;;;9.90;99.90;;;;;;4979017;28;20053;-89
2022/10/19 06:34:43;;;;;;;3.88;1.33;;;9.90;99.90;;;;;;4975534;28;20045;-94
2022/10/19 06:37:08;;;;;;;7.65;1.42;;;9.90;99.90;;;;;;4964178;28;20162;-92
2022/10/19 06:39:35;;;;;;;3.17;1.10;;;9.80;99.90;;;;;;4962393;28;20029;-92
2022/10/19 06:42:02;;;;;;;9.40;1.30;;;9.80;99.90;;;;;;4966264;28;20058;-93
2022/10/19 06:44:28;;;;;;;6.43;1.10;;;9.90;99.90;;;;;;4974271;28;20027;-92
2022/10/19 06:46:53;;;;;;;4.70;1.40;;;9.80;99.90;;;;;;4975025;28;20030;-91
2022/10/19 06:49:19;;;;;;;8.63;1.90;;;9.80;99.90;;;;;;4990890;28;20107;-92
2022/10/19 06:51:45;;;;;;;7.50;2.10;;;9.80;99.90;;;;;;4973850;28;20035;-92
2022/10/19 06:54:10;;;;;;;6.18;2.50;;;9.80;99.90;;;;;;4970424;28;20121;-94
2022/10/19 06:56:36;;;;;;;6.55;1.88;;;9.80;99.90;;;;;;4972835;28;20069;-93
2022/10/19 06:59:02;;;;;;;4.70;1.73;;;9.70;99.90;;;;;;4973448;28;20042;-94
2022/10/19 07:01:28;;;;;;;9.95;2.63;;;9.70;99.90;;;;;;4974961;28;20127;-93
2022/10/19 07:03:54;;;;;;;6.53;1.73;;;9.70;99.90;;;;;;4969870;28;20058;-94
2022/10/19 07:06:22;;;;;;;5.88;2.17;;;9.70;99.90;;;;;;4972230;28;20027;-93
2022/10/19 07:08:48;;;;;;;8.45;1.95;;;9.80;99.90;;;;;;4953381;28;20047;-95
2022/10/19 07:11:19;;;;;;;16.27;3.55;;;9.80;99.90;;;;;;4973641;28;20027;-95
2022/10/19 07:13:44;;;;;;;3.83;2.13;;;9.80;99.90;;;;;;4968352;28;20074;-92
2022/10/19 07:16:13;;;;;;;7.40;2.28;;;9.80;99.90;;;;;;4976952;28;20019;-89
2022/10/19 07:18:40;;;;;;;12.75;1.90;;;9.80;99.90;;;;;;4980361;28;20043;-89
2022/10/19 07:21:09;;;;;;;7.40;2.00;;;9.80;99.90;;;;;;4970365;28;20037;-90
2022/10/19 07:23:36;;;;;;;8.90;2.70;;;9.80;99.90;;;;;;4966506;28;20042;-88
2022/10/19 07:26:15;;;;;;;5.93;1.88;;;9.80;99.90;;;;;;4967879;28;20030;-89
2022/10/19 07:28:42;;;;;;;3.47;2.30;;;9.80;99.90;;;;;;4969774;28;20112;-87
2022/10/19 07:31:11;;;;;;;5.75;2.63;;;9.80;99.90;;;;;;4980828;28;20065;-90
2022/10/19 07:33:37;;;;;;;4.93;1.35;;;9.80;99.90;;;;;;4968126;28;20037;-88
2022/10/19 07:36:06;;;;;;;7.43;1.92;;;9.80;99.90;;;;;;4969539;28;20089;-92
2022/10/19 07:38:32;;;;;;;4.30;1.50;;;9.90;99.90;;;;;;4968358;28;20034;-92
2022/10/19 07:41:05;;;;;;;4.30;1.52;;;9.90;99.90;;;;;;4963731;28;20054;-93
2022/10/19 07:43:31;;;;;;;9.35;2.10;;;9.90;99.90;;;;;;4957127;29;20031;-93
2022/10/19 07:46:02;;;;;;;4.15;1.40;;;9.90;99.90;;;;;;4965226;28;20042;-92
2022/10/19 07:48:28;;;;;;;;;;;9.90;99.90;;;;;;4956251;29;20031;-91
2022/10/19 07:50:54;;;;;;;4.05;1.42;;;10.00;99.90;;;;;;4947531;28;19961;-92
2022/10/19 07:53:19;;;;;;;11.68;1.42;;;10.00;99.90;;;;;;4942417;29;20039;-91
2022/10/19 07:55:45;;;;;;;4.35;1.40;;;10.00;99.90;;;;;;4942542;29;20150;-93
2022/10/19 07:58:10;;;;;;;5.55;1.48;;;10.00;99.90;;;;;;4944661;28;20146;-90
2022/10/19 08:00:36;;;;;;;4.70;1.63;;;10.10;99.90;;;;;;4960840;28;20129;-91
2022/10/19 08:03:02;;;;;;;7.75;1.38;;;10.10;99.90;;;;;;4957850;29;20027;-93
2022/10/19 08:05:28;;;;;;;4.60;1.63;;;10.10;99.90;;;;;;4945511;28;20105;-93
2022/10/19 08:07:53;;;;;;;2.55;1.10;;;10.10;99.90;;;;;;4961306;28;20465;-92
2022/10/19 08:10:19;;;;;;;6.30;1.98;;;10.20;99.90;;;;;;4961592;28;20026;-92
2022/10/19 08:12:44;;;;;;;6.50;1.30;;;10.20;99.90;;;;;;4977602;28;20034;-91
2022/10/19 08:15:10;;;;;;;6.22;1.45;;;10.20;99.90;;;;;;4961614;28;20045;-94
2022/10/19 08:17:36;;;;;;;11.43;1.42;;;10.20;99.90;;;;;;4961115;28;20043;-90
2022/10/19 08:20:05;;;;;;;6.30;1.20;;;10.20;99.90;;;;;;4961078;28;20113;-93
2022/10/19 08:22:31;;;;;;;10.98;1.85;;;10.30;99.90;;;;;;4961253;28;20034;-93
2022/10/19 08:24:56;;;;;;;9.50;1.33;;;10.30;99.90;;;;;;4961180;28;20583;-91
2022/10/19 08:27:22;;;;;;;7.45;1.33;;;10.30;99.90;;;;;;4961562;28;20088;-91
2022/10/19 08:29:48;;;;;;;3.15;1.38;;;10.30;99.90;;;;;;4961473;28;20050;-94
2022/10/19 08:32:14;;;;;;;9.18;1.60;;;10.40;99.90;;;;;;4962718;28;20042;-91
2022/10/19 08:34:40;;;;;;;3.80;1.10;;;10.40;99.90;;;;;;4970830;28;20480;-92
2022/10/19 08:37:05;;;;;;;11.73;1.33;;;10.40;99.90;;;;;;4969402;28;20027;-92
2022/10/19 08:39:34;;;;;;;4.70;1.13;;;10.50;99.90;;;;;;4961447;28;20481;-94
2022/10/19 08:42:10;;;;;;;6.65;1.17;;;10.50;99.90;;;;;;4961700;28;20059;-92
2022/10/19 08:45:00;;;;;;;8.73;2.15;;;10.50;99.90;;;;;;4962811;28;20034;-91
2022/10/19 08:47:31;;;;;;;9.40;1.50;;;10.60;99.90;;;;;;4941718;29;20078;-90
2022/10/19 08:49:58;;;;;;;6.53;1.27;;;10.60;99.90;;;;;;4959756;29;20035;-91
2022/10/19 08:52:32;;;;;;;6.68;1.23;;;10.60;99.90;;;;;;4940377;29;20090;-92
2022/10/19 08:55:07;;;;;;;9.73;1.00;;;10.60;99.90;;;;;;4941425;29;20038;-92
2022/10/19 08:58:04;;;;;;;4.32;1.40;;;10.70;99.90;;;;;;4945388;28;20546;-91
2022/10/19 09:00:48;;;;;;;3.72;1.30;;;10.70;99.90;;;;;;4960356;28;20392;-92
2022/10/19 09:03:14;;;;;;;3.50;0.98;;;10.70;99.90;;;;;;4957057;29;20034;-92
2022/10/19 09:05:45;;;;;;;4.43;1.30;;;10.80;99.90;;;;;;4941610;29;20114;-92
2022/10/19 09:08:15;;;;;;;8.15;1.70;;;10.80;99.90;;;;;;4944431;28;20026;-92
2022/10/19 09:10:44;;;;;;;3.38;1.13;;;10.80;99.90;;;;;;4950701;29;20094;-92
2022/10/19 09:13:41;;;;;;;12.50;1.70;;;10.90;99.90;;;;;;4950484;29;20043;-93
2022/10/19 09:16:11;;;;;;;9.95;2.47;;;10.90;99.90;;;;;;4949131;29;20035;-92
2022/10/19 09:18:37;;;;;;;;;;;10.90;99.90;;;;;;4969988;29;20082;-92
2022/10/19 09:21:20;;;;;;;6.60;1.38;;;10.90;99.90;;;;;;4941259;29;20364;-91
2022/10/19 09:23:49;;;;;;;7.22;1.10;;;11.00;99.90;;;;;;4958578;28;20026;-93
2022/10/19 09:26:20;;;;;;;4.95;1.10;;;11.00;99.90;;;;;;4959645;28;20117;-93
2022/10/19 09:28:51;;;;;;;;;;;11.00;99.90;;;;;;4960378;28;20023;-93
2022/10/19 09:31:36;;;;;;;11.40;1.35;;;11.00;99.90;;;;;;4960062;28;19963;-93
2022/10/19 09:34:06;;;;;;;9.95;1.73;;;11.00;99.90;;;;;;4959253;28;20022;-94
2022/10/19 09:36:48;;;;;;;5.95;1.40;;;11.10;99.90;;;;;;4959677;28;20030;-94
2022/10/19 09:39:14;;;;;;;11.55;1.60;;;11.10;99.90;;;;;;4959645;28;20031;-93
2022/10/19 09:41:51;;;;;;;5.82;1.13;;;11.10;99.90;;;;;;4959752;28;20030;-94
2022/10/19 09:44:17;;;;;;;5.85;1.60;;;11.20;99.90;;;;;;4959708;28;20114;-93
2022/10/19 09:47:14;;;;;;;7.57;1.40;;;11.20;99.90;;;;;;4959257;28;20031;-93
2022/10/19 09:49:44;;;;;;;9.93;1.35;;;11.30;99.90;;;;;;4959348;28;20483;-95
2022/10/19 09:52:31;;;;;;;11.10;1.70;;;11.30;99.90;;;;;;4958855;28;20046;-96
2022/10/19 09:55:04;;;;;;;4.97;1.38;;;11.30;99.90;;;;;;4958952;28;20035;-92
2022/10/19 09:57:30;;;;;;;5.55;1.40;;;11.40;99.90;;;;;;4959288;28;20054;-93
2022/10/19 09:59:56;;;;;;;15.93;2.88;;;11.40;99.90;;;;;;4959508;28;20034;-93
2022/10/19 10:02:32;;;;;;;5.90;1.20;;;11.40;99.90;;;;;;4960379;28;20038;-93
2022/10/19 10:05:05;;;;;;;5.70;1.60;;;11.50;99.90;;;;;;4960003;28;20488;-94
2022/10/19 10:07:37;;;;;;;11.07;1.67;;;11.50;99.90;;;;;;4959444;28;20117;-93
2022/10/19 10:10:17;;;;;;;10.48;1.60;;;11.60;99.90;;;;;;4952467;28;20477;-93
2022/10/19 10:12:43;;;;;;;7.60;1.50;;;11.70;99.90;;;;;;4958964;28;20031;-92
2022/10/19 10:15:17;;;;;;;4.38;1.90;;;11.70;99.90;;;;;;4958581;28;20038;-91
2022/10/19 10:17:46;;;;;;;7.60;1.75;;;11.70;99.90;;;;;;4946956;29;20156;-92
2022/10/19 10:20:27;;;;;;;5.78;2.13;;;11.80;99.90;;;;;;4939556;29;20027;-92
2022/10/19 10:23:04;;;;;;;8.13;1.45;;;11.80;99.90;;;;;;4955552;29;20039;-91
2022/10/19 10:25:32;;;;;;;5.32;1.63;;;11.80;99.90;;;;;;4940683;29;20031;-91
2022/10/19 10:28:16;;;;;;;5.55;1.70;;;11.80;99.90;;;;;;4939928;29;20054;-91
2022/10/19 10:30:45;;;;;;;9.55;1.67;;;11.80;99.90;;;;;;4942737;29;20027;-90
2022/10/19 10:33:25;;;;;;;5.10;1.60;;;11.90;99.90;;;;;;4948367;29;20120;-93
2022/10/19 10:35:54;;;;;;;5.55;1.27;;;11.90;99.90;;;;;;4942266;29;20034;-92
2022/10/19 10:38:48;;;;;;;5.85;1.50;;;11.90;99.90;;;;;;4939013;29;20059;-92
2022/10/19 10:41:16;;;;;;;7.40;1.70;;;11.90;99.90;;;;;;4938467;29;20039;-91
2022/10/19 10:43:53;;;;;;;6.63;2.17;;;11.90;99.90;;;;;;4939096;29;20027;-93
2022/10/19 10:46:33;;;;;;;10.77;1.58;;;12.00;99.90;;;;;;4938735;29;20035;-92
2022/10/19 10:49:04;;;;;;;6.45;1.50;;;12.00;99.90;;;;;;4938764;29;20031;-92
2022/10/19 10:51:44;;;;;;;8.27;1.52;;;12.00;99.90;;;;;;4938930;29;20034;-92
2022/10/19 10:54:30;;;;;;;11.32;2.20;;;12.00;99.90;;;;;;4939829;29;20031;-94
2022/10/19 10:57:18;;;;;;;9.55;1.40;;;12.00;99.90;;;;;;4940693;29;20042;-95
2022/10/19 10:59:56;;;;;;;9.18;1.30;;;12.10;99.90;;;;;;4960213;29;20027;-92
2022/10/19 11:02:48;;;;;;;5.40;1.50;;;12.10;99.90;;;;;;4958189;29;20080;-93
2022/10/19 11:05:30;;;;;;;4.78;1.30;;;12.20;99.90;;;;;;4946423;29;20035;-94
2022/10/19 11:08:17;;;;;;;9.25;1.30;;;12.20;99.90;;;;;;4939986;29;20110;-95
2022/10/19 11:11:21;;;;;;;4.22;1.17;;;12.20;99.90;;;;;;4939307;29;20037;-95
2022/10/19 11:13:55;;;;;;;5.10;1.02;;;12.20;99.90;;;;;;4900777;29;20043;-94
2022/10/19 11:16:34;;;;;;;5.80;1.13;;;12.30;99.90;;;;;;4915242;29;20445;-94
2022/10/19 11:19:24;;;;;;;5.53;1.30;;;12.30;99.90;;;;;;4899506;29;20599;-92
2022/10/19 11:22:14;;;;;;;5.53;1.17;;;12.30;99.90;;;;;;4899924;29;20036;-93
2022/10/19 11:25:14;;;;;;;4.80;1.20;;;12.40;99.90;;;;;;4901396;29;20031;-93
2022/10/19 11:28:11;;;;;;;11.75;2.00;;;12.40;99.90;;;;;;4901949;29;20052;-92
2022/10/19 11:30:48;;;;;;;4.38;1.50;;;12.50;99.90;;;;;;4907160;29;20123;-92
2022/10/19 11:33:38;;;;;;;7.75;1.50;;;12.50;99.90;;;;;;4922908;29;20056;-93
2022/10/19 11:36:15;;;;;;;7.63;1.33;;;12.60;99.90;;;;;;4929592;28;20032;-92
2022/10/19 11:39:01;;;;;;;5.65;1.20;;;12.60;99.90;;;;;;4939704;29;20035;-91
2022/10/19 11:41:57;;;;;;;5.55;1.45;;;12.60;99.90;;;;;;4935059;29;20035;-92
2022/10/19 11:44:59;;;;;;;4.25;0.95;;;12.60;99.90;;;;;;4923231;29;20044;-94
2022/10/19 11:47:35;;;;;;;10.68;1.30;;;12.70;99.90;;;;;;4896098;29;20028;-91
2022/10/19 11:50:32;;;;;;;5.80;1.05;;;12.70;99.90;;;;;;4926394;29;20035;-92
2022/10/19 11:53:35;;;;;;;7.43;1.05;;;12.90;99.90;;;;;;4938667;29;20082;-93
2022/10/19 11:56:18;;;;;;;4.00;1.10;;;13.00;99.90;;;;;;4931107;29;20031;-92
2022/10/19 11:59:05;;;;;;;6.65;1.20;;;13.10;99.90;;;;;;4939113;29;20122;-94
2022/10/19 12:01:36;;;;;;;5.47;0.93;;;13.20;99.90;;;;;;4939373;29;20072;-93
2022/10/19 12:04:38;;;;;;;3.92;1.17;;;13.40;99.90;;;;;;4938684;29;20019;-93
2022/10/19 12:07:07;;;;;;;4.53;1.13;;;13.60;99.90;;;;;;4944245;29;20066;-93
2022/10/19 12:09:45;;;;;;;5.72;0.90;;;13.80;99.90;;;;;;4943336;29;20024;-94
2022/10/19 12:12:34;;;;;;;5.78;0.60;;;13.90;99.90;;;;;;4938371;29;20043;-91
2022/10/19 12:15:39;;;;;;;3.28;0.85;;;13.90;99.90;;;;;;4938320;29;20038;-94
2022/10/19 12:18:21;;;;;;;4.25;0.75;;;14.00;99.90;;;;;;4938428;29;20055;-94
2022/10/19 12:20:57;;;;;;;2.72;0.80;;;14.00;99.90;;;;;;4938326;29;20106;-93
2022/10/19 12:23:37;;;;;;;2.92;0.70;;;14.00;99.90;;;;;;4938580;29;20039;-94
2022/10/19 12:26:07;;;;;;;5.45;1.00;;;13.90;99.90;;;;;;4940545;29;20020;-94
2022/10/19 12:28:40;;;;;;;9.43;1.20;;;13.80;99.90;;;;;;4943946;29;20031;-92
2022/10/19 12:31:09;;;;;;;10.00;1.50;;;13.80;99.90;;;;;;4948150;29;20031;-93
2022/10/19 12:33:59;;;;;;;5.57;1.20;;;13.80;99.90;;;;;;4943676;29;20504;-94
2022/10/19 12:36:52;;;;;;;9.27;1.45;;;13.80;99.90;;;;;;4942838;29;20023;-93
2022/10/19 12:39:44;;;;;;;3.00;0.80;;;13.70;99.90;;;;;;4942206;29;20035;-93
2022/10/19 12:42:29;;;;;;;4.05;0.90;;;13.80;99.90;;;;;;4942967;29;20087;-95
2022/10/19 12:45:25;;;;;;;3.95;0.93;;;13.80;99.90;;;;;;4943162;29;20435;-94
2022/10/19 12:48:10;;;;;;;8.20;1.08;;;13.80;99.90;;;;;;4966244;28;20031;-93
2022/10/19 12:50:47;;;;;;;6.68;1.17;;;13.70;99.90;;;;;;4973673;28;20055;-94
2022/10/19 12:53:37;;;;;;;7.55;1.55;;;13.70;99.90;;;;;;4963748;28;20035;-94
2022/10/19 12:56:26;;;;;;;9.50;1.45;;;13.70;99.90;;;;;;4962255;28;20110;-93
2022/10/19 12:59:02;;;;;;;6.85;0.82;;;13.60;99.90;;;;;;4949752;28;20098;-93
2022/10/19 13:01:33;;;;;;;6.03;0.98;;;13.60;99.90;;;;;;4960836;28;20062;-92
2022/10/19 13:04:30;;;;;;;5.40;1.20;;;13.70;99.90;;;;;;4961497;28;20035;-94
2022/10/19 13:06:55;;;;;;;10.50;1.25;;;13.70;99.90;;;;;;4959699;28;20066;-92
2022/10/19 13:09:44;;;;;;;4.40;1.30;;;13.70;99.90;;;;;;4960313;28;20034;-91
2022/10/19 13:12:16;;;;;;;7.70;1.50;;;13.70;99.90;;;;;;4959971;28;20035;-92